中部国際空港の過去48時間の天気

中部国際空港 (Chubu Centrair International)

現在時刻: 8/18 23:05 JST (8/18 14:05 UTC) 以下の時間は現地時間です。

過去48時間のMETAR気象情報
時間 風向 風速(m/s) 視程 気温(℃) 湿度(%) 気圧(hPa) 天気現象
18 22:30 北西 9 10km以上 26 79 1006
18 22:00 北西 9 10km以上 26 79 1006
18 21:30 北西 10 10km以上 27 74 1006
18 21:00 北西 11 10km以上 27 74 1006
18 20:30 北西 9 10km以上 27 74 1006
18 20:00 北西 9 10km以上 27 74 1006
18 19:30 北西 10 10km以上 27 74 1005
18 19:00 北西 9 10km以上 28 70 1005
18 18:30 北西 9 10km以上 28 70 1005
18 18:00 北西 8 10km以上 29 70 1005
18 17:30 北西 8 10km以上 29 70 1005
18 17:00 北西 8 10km以上 29 66 1005
18 16:30 北西 5 10km以上 29 70 1004
18 16:00 西北西 2 10km以上 30 66 1004
18 15:30 西 2 10km以上 29 74 1004
18 15:00 西南西 3 10km以上 30 70 1004
18 14:30 南西 2 10km以上 29 74 1005
18 14:00 南西 3 10km以上 29 74 1005
18 13:30 南西 2 10km以上 29 70 1005
18 13:00 西 4 10km以上 29 70 1005
18 12:30 西南西 5 10km以上 28 74 1005
18 12:00 西南西 6 10km以上 28 74 1006
18 11:30 西南西 6 10km以上 27 79 1005
18 11:00 西南西 4 10km以上 27 79 1005
18 10:30 南南西 2 10km以上 26 84 1006
18 10:00 西 3 10km以上 26 84 1006
18 09:30 3 10km以上 25 89 1006 周辺でしゅう雨
18 09:00 北北西 6 10km以上 25 89 1007 周辺でしゅう雨
18 08:30 西北西 8 10km以上 26 89 1006 周辺でしゅう雨
18 08:00 西南西 6 10km以上 25 89 1006 弱いしゅう雨
18 07:30 西北西 7 4500m 25 100 1006 しゅう雨 もや
18 07:00 北西 6 3000m 25 100 1006 しゅう雨 もや
18 06:30 北西 3 7000m 25 100 1005 弱いしゅう雨
18 06:00 不定 1 8000m 26 94 1005 周辺でしゅう雨
18 05:30 2 5000m 25 100 1005 もや
18 05:00 南南東 2 10km以上 26 94 1005 弱い雨
18 04:30 東南東 1 10km以上 26 94 1005
18 04:00 南東 3 10km以上 26 94 1005
18 03:30 2 10km以上 26 94 1005 弱い雨
18 03:00 2 9000m 26 94 1006 弱い雨
18 02:30 不定 1 9000m 26 94 1007 弱い雨
18 02:00 不定 1 10km以上 25 100 1007 弱い雨
18 01:30 3 9000m 25 100 1007 弱い雨
18 01:00 不定 1 10km以上 25 94 1008 弱い雨
18 00:30 不定 1 10km以上 25 94 1008
18 00:00 北北東 2 10km以上 25 94 1008
17 23:30 1 10km以上 25 94 1008
17 23:00 2 10km以上 25 94 1008
17 22:30 3 10km以上 26 94 1009
17 22:00 3 10km以上 26 94 1009
17 21:30 北北東 3 10km以上 26 94 1009
17 21:00 北北東 3 10km以上 26 89 1009 周辺でしゅう雨
17 20:30 4 10km以上 26 89 1009 周辺でしゅう雨
17 20:00 4 10km以上 25 94 1009 周辺でしゅう雨
17 19:30 4 10km以上 25 94 1009 周辺でしゅう雨
17 19:00 北北西 3 10km以上 26 89 1009 弱いしゅう雨
17 18:30 北北西 4 10km以上 26 89 1009 弱いしゅう雨
17 18:00 北北西 4 10km以上 26 89 1009 周辺でしゅう雨
17 17:30 北北西 5 10km以上 26 94 1009 周辺でしゅう雨
17 17:00 北北西 5 10km以上 26 94 1008
17 16:30 北北西 4 10km以上 26 94 1009
17 16:00 北北西 4 10km以上 27 84 1009
17 15:30 北北西 5 10km以上 27 89 1009 周辺でしゅう雨
17 15:00 北西 4 10km以上 27 89 1009
17 14:30 3 10km以上 27 84 1009
17 14:00 2 10km以上 26 84 1009
17 13:30 2 10km以上 25 89 1010 周辺でしゅう雨
17 13:00 北東 3 10km以上 24 94 1010 弱い雷雨
17 12:30 北北西 11 1200m 24 94 1010 強い雷雨 もや
17 12:00 北北西 3 10km以上 27 84 1010 弱い雷雨
17 11:30 北西 3 10km以上 26 89 1010 弱いしゅう雨
17 11:00 北西 3 10km以上 27 84 1010
17 10:30 西北西 2 10km以上 27 84 1010
17 10:00 西北西 2 10km以上 26 84 1010
17 09:30 北東 2 10km以上 26 84 1010 周辺でしゅう雨
17 09:00 東北東 2 10km以上 26 84 1010 周辺でしゅう雨
17 08:30 北東 2 10km以上 25 89 1010
17 08:00 北東 3 10km以上 25 89 1010
17 07:30 東北東 4 10km以上 25 94 1010
17 07:00 東北東 4 10km以上 24 94 1009 周辺でしゅう雨
17 06:30 北東 5 10km以上 24 94 1010 しゅう雨
17 06:00 8 1200m 23 100 1010 強いしゅう雨 もや
17 05:30 6 10km以上 25 94 1009
17 05:00 4 10km以上 25 94 1009
17 04:30 北北東 4 10km以上 25 94 1008 弱い雨
17 04:00 6 10km以上 25 94 1009 弱い雨
17 03:30 不定 1 10km以上 25 94 1008 弱い雨
17 03:00 不定 1 10km以上 25 94 1008 弱い雨
17 02:30 北北東 2 10km以上 25 94 1008
17 02:00 北西 2 10km以上 25 94 1008
17 01:30 不定 1 10km以上 25 94 1008
17 01:00 不定 1 10km以上 25 94 1008 弱い雨
17 00:30 1 10km以上 25 94 1008
17 00:00 北北西 4 10km以上 25 89 1008
16 23:30 4 10km以上 25 94 1008 弱い雨
RJGG 181330Z 31018KT 9999 FEW030 26/22 Q1006 NOSIG
RJGG 181300Z 32018KT 9999 FEW030 26/22 Q1006 NOSIG
RJGG 181230Z 31020KT 9999 FEW030 27/22 Q1006 NOSIG
RJGG 181200Z 31021KT 9999 FEW030 27/22 Q1006 NOSIG
RJGG 181130Z 31018KT 9999 FEW030 27/22 Q1006 NOSIG
RJGG 181100Z 32018KT 9999 FEW030 27/22 Q1006 NOSIG
RJGG 181030Z 32019KT 9999 FEW030 27/22 Q1005 NOSIG
RJGG 181000Z 31017KT 9999 FEW030 28/22 Q1005 NOSIG
RJGG 180930Z 31018KT 9999 FEW030 28/22 Q1005 NOSIG
RJGG 180900Z 32016KT 9999 FEW030 SCT070 29/23 Q1005 NOSIG
RJGG 180830Z 32016KT 9999 FEW030 29/23 Q1005 NOSIG
RJGG 180800Z 32016KT 9999 FEW030 29/22 Q1005 NOSIG
RJGG 180730Z 32010KT 9999 FEW030 SCT050 29/23 Q1004 NOSIG
RJGG 180700Z 29004KT 250V320 9999 FEW030 30/23 Q1004 BECMG 32014KT
RJGG 180630Z 26003KT 9999 FEW030 29/24 Q1004 BECMG TL0700 32008KT
RJGG 180600Z 24006KT 9999 FEW030 30/24 Q1004 BECMG 32012KT
RJGG 180530Z 22004KT 9999 FEW020 29/24 Q1005 BECMG 32012KT
RJGG 180500Z 22005KT 9999 FEW020 29/24 Q1005 BECMG 32012KT
RJGG 180430Z 23004KT 9999 FEW020 29/23 Q1005 NOSIG
RJGG 180400Z 27007KT 9999 FEW020 29/23 Q1005 BECMG 24008KT
RJGG 180330Z 25009KT 9999 FEW020 28/23 Q1005 NOSIG
RJGG 180300Z 25011KT 9999 FEW020 SCT180 28/23 Q1006 NOSIG
RJGG 180230Z 25012KT 9999 FEW020 BKN180 27/23 Q1005 NOSIG
RJGG 180200Z 24008KT 9999 FEW020 BKN170 27/23 Q1005 NOSIG
RJGG 180130Z 20003KT 9999 FEW010 SCT030 BKN070 26/23 Q1006 NOSIG
RJGG 180100Z 26005KT 9999 FEW007 BKN030 BKN100 26/23 Q1006 BECMG 28008KT
RJGG 180030Z 01005KT 340V050 9999 VCSH FEW007 BKN030 BKN100 25/23 Q1006 NOSIG
RJGG 180000Z 33011KT 9999 VCSH FEW005 SCT010 BKN030 25/23 Q1007 NOSIG
RJGG 172330Z 30015KT 9999 VCSH FEW005 SCT030 BKN100 26/24 Q1006 NOSIG
RJGG 172300Z 25012KT 9999 -SHRA FEW003 SCT010 BKN030 25/23 Q1006 BECMG 28012KT
RJGG 172230Z 30013KT 4500 SHRA BR FEW003 SCT006 FEW020CB BKN025 25/25 Q1006 BECMG 8000 -SHRA
RJGG 172200Z 32011KT 3000 SHRA BR FEW004 SCT008 BKN015 FEW020CB 25/25 Q1006 TEMPO TSRA BR FEW004 BKN008 FEW025CB
RJGG 172130Z 31005KT 7000 -SHRA FEW015 FEW020CB BKN120 25/25 Q1005 TEMPO 3000 +TSRA BR FEW004 BKN008 FEW025CB
RJGG 172100Z VRB01KT 8000 VCSH FEW015 FEW020CB BKN140 26/25 Q1005 BECMG 30006KT TEMPO 3000 +TSRA BR
RJGG 172030Z AUTO 35004KT 5000 BR FEW100 BKN150 OVC160 //////CB 25/25 Q1005 BECMG 25005KT TEMPO 4000 SHRA BR
RJGG 172000Z AUTO 15003KT 9999 -RA FEW060 SCT090 BKN110 //////CB 26/25 Q1005 NOSIG
RJGG 171930Z AUTO 12002KT 9999 SCT021 BKN100 BKN110 26/25 Q1005 NOSIG
RJGG 171900Z AUTO 14005KT 9999 NSC 26/25 Q1005 NOSIG
RJGG 171830Z AUTO 09004KT 9999 -RA NSC 26/25 Q1005 NOSIG
RJGG 171800Z AUTO 09004KT 9000 -RA NSC 26/25 Q1006 NOSIG
RJGG 171730Z AUTO VRB02KT 9000 -RA NSC 26/25 Q1007 NOSIG
RJGG 171700Z AUTO VRB02KT 9999 -RA NSC 25/25 Q1007 NOSIG
RJGG 171630Z AUTO 01006KT 9000 -RA NSC 25/25 Q1007 BECMG 12005KT
RJGG 171600Z AUTO VRB02KT 9999 -RA NSC 25/24 Q1008 BECMG 12005KT
RJGG 171530Z AUTO VRB01KT 9999 NSC 25/24 Q1008 BECMG 10005KT
RJGG 171500Z AUTO 03003KT 330V090 9999 NSC 25/24 Q1008 BECMG 14006KT
RJGG 171430Z AUTO 01002KT 9999 NSC 25/24 Q1008 BECMG 14006KT
RJGG 171400Z AUTO 01003KT 9999 NSC 25/24 Q1008 BECMG 14006KT
RJGG 171330Z 01005KT 9999 FEW015 SCT020 BKN030 26/25 Q1009 NOSIG
RJGG 171300Z 01006KT 9999 FEW015 SCT020 BKN030 26/25 Q1009 NOSIG
RJGG 171230Z 02005KT 9999 FEW015 SCT020 BKN030 26/25 Q1009 NOSIG
RJGG 171200Z 02005KT 9999 VCSH FEW015 SCT020 BKN/// 26/24 Q1009 NOSIG
RJGG 171130Z 36007KT 9999 VCSH FEW015 BKN025 26/24 Q1009 NOSIG
RJGG 171100Z 36007KT 9999 VCSH FEW010 SCT025 BKN045 25/24 Q1009 NOSIG
RJGG 171030Z 35008KT 9999 VCSH FEW010 BKN030 25/24 Q1009 NOSIG
RJGG 171000Z 34006KT 9999 -SHRA SCT010 FEW020CB BKN030 26/24 Q1009 NOSIG
RJGG 170930Z 34007KT 9999 -SHRA FEW020CB BKN030 26/24 Q1009 NOSIG
RJGG 170900Z 33008KT 9999 VCSH FEW020CB BKN030 26/24 Q1009 NOSIG
RJGG 170830Z 34009KT 9999 VCSH FEW020 SCT030 BKN040 26/25 Q1009 NOSIG
RJGG 170800Z 34009KT 9999 FEW020 SCT035 BKN/// 26/25 Q1008 NOSIG
RJGG 170730Z 33007KT 9999 FEW020 SCT035 BKN/// 26/25 Q1009 NOSIG
RJGG 170700Z 34008KT 9999 FEW020 BKN035 27/24 Q1009 NOSIG
RJGG 170630Z 33010KT 9999 VCSH FEW020 SCT040 BKN/// 27/25 Q1009 NOSIG
RJGG 170600Z 32007KT 9999 FEW020 SCT040 BKN/// 27/25 Q1009 NOSIG
RJGG 170530Z 35005KT 310V030 9999 FEW010 SCT040 BKN/// 27/24 Q1009 NOSIG
RJGG 170500Z 36004KT 9999 FEW010 SCT040 BKN/// 26/23 Q1009 NOSIG
RJGG 170430Z 36004KT 340V040 9999 VCSH FEW010 FEW020CB SCT040 BKN100 25/23 Q1010 NOSIG
RJGG 170400Z 04006KT 9999 -TSRA FEW009 FEW020CB SCT035 BKN070 24/23 Q1010 NOSIG
RJGG 170330Z 33021KT 1200 R36/1000VP2000D +TSRA BR FEW010 SCT015 FEW025CB BKN030 24/23 Q1010 BECMG 33010KT 8000 -TSRA
RJGG 170300Z 33006KT 9999 -TSRA FEW010 SCT020 FEW025CB BKN040 27/24 Q1010 TEMPO 3000 TSRA BR
RJGG 170230Z 32005KT 9999 -SHRA FEW010 SCT020 FEW025CB BKN045 26/24 Q1010 NOSIG
RJGG 170200Z 31005KT 9999 FEW011 SCT050 BKN/// 27/24 Q1010 NOSIG
RJGG 170130Z 30003KT 9999 FEW011 SCT050 BKN/// 27/24 Q1010 NOSIG
RJGG 170100Z 30003KT 9999 FEW010 BKN050 BKN100 26/23 Q1010 NOSIG
RJGG 170030Z 05003KT 360V100 9999 VCSH FEW010 SCT100 BKN130 26/23 Q1010 NOSIG
RJGG 170000Z 06003KT 340V100 9999 VCSH FEW008 SCT100 BKN140 26/23 Q1010 NOSIG
RJGG 162330Z 04004KT 9999 FEW008 BKN140 BKN/// 25/23 Q1010 NOSIG
RJGG 162300Z 04006KT 010V070 9999 FEW010 SCT110 BKN/// 25/23 Q1010 NOSIG
RJGG 162230Z 06008KT 9999 FEW005 SCT030 BKN110 25/24 Q1010 NOSIG
RJGG 162200Z 06008KT 9999 VCSH FEW005 BKN030 BKN070 24/23 Q1009 TEMPO TL2300 TS
RJGG 162130Z 04009KT 9999 SHRA FEW003 SCT007 BKN015 FEW025CB 24/23 Q1010 TEMPO 4000 TSRA BR
RJGG 162100Z 35015KT 1200 R36/0800VP2000D +SHRA BR FEW003 SCT005 BKN008 FEW025CB 23/23 Q1010 BECMG 3000 TSRA BR TEMPO TSRA BR
RJGG 162030Z AUTO 01012KT 9999 SCT005 BKN009 BKN012 //////CB 25/24 Q1009 TEMPO 4000 TSRA BR
RJGG 162000Z AUTO 01007KT 9999 FEW004 SCT008 BKN010 //////CB 25/24 Q1009 TEMPO -TSRA
RJGG 161930Z AUTO 03007KT 9999 -RA FEW010 BKN015 BKN042 //////CB 25/24 Q1008 TEMPO 3000 TSRA BR
RJGG 161900Z AUTO 35011KT 9999 -RA FEW007 BKN010 OVC011 //////CB 25/24 Q1009 TEMPO 4000 TSRA BR
RJGG 161830Z AUTO VRB01G11KT 9999 -RA SCT011 BKN100 BKN110 //////CB 25/24 Q1008 BECMG 32006KT TEMPO 4000 TSRA BR
RJGG 161800Z AUTO VRB02KT 9999 -RA BKN011 BKN042 OVC080 //////CB 25/24 Q1008 BECMG 32006KT TEMPO 4000 TSRA BR
RJGG 161730Z AUTO 03004KT 9999 SCT011 BKN090 BKN100 //////CB 25/24 Q1008 TEMPO 4000 TSRA BR
RJGG 161700Z AUTO 31004KT 9999 FEW050 SCT070 BKN110 //////TCU 25/24 Q1008 TEMPO 4000 TSRA BR
RJGG 161630Z AUTO VRB01KT 9999 FEW040 SCT060 BKN070 //////TCU 25/24 Q1008 NOSIG
RJGG 161600Z AUTO VRB01KT 9999 -RA FEW060 BKN080 BKN100 //////TCU 25/24 Q1008 TEMPO 4000 SHRA BR
RJGG 161530Z AUTO 01002KT 9999 FEW031 SCT070 BKN080 //////TCU 25/24 Q1008 TEMPO 4000 TSRA BR
RJGG 161500Z AUTO 34008KT 9999 RA FEW014 SCT047 BKN060 //////TCU 25/23 Q1008 TEMPO 3000 TSRA BR
RJGG 161430Z AUTO 35007KT 9999 -RA FEW013 SCT049 BKN080 //////TCU 25/24 Q1008 TEMPO 4000 TSRA BR